Burlington, Illinois
Current Conditions -  °F | °C
As of 4:35 PM on Wednesday 22 Oct 2014 (Local Time) from KDKB Reporting Station
Clear Clear  
Wind Chill: 55°   Ceiling: Unl
Heat Index: 55°   Visibility: 10mi
Dew Point: 37°   Wind: 6mph
Humidity: 51%   Direction: 120°ESE
Pressure: 30.27"   Gusts: NA
Location:  42.05°N, 88.55°W
Report Text: KDKB 222135Z AUTO 12005KT 10SM CLR 13/03 A3027 RMK AO2 T01280029
Loading
Personal Weather Stations






























Interactive Weather Map
Tropical Storm Tracking
New forecast layout! Learn more

10-Day Weather Forecast

Advertisements
Track Severe Weather on mobile